Agua Linda, Arizona
Current Conditions -  °F | °C
As of 10:54 PM on Saturday 25 Oct 2014 (Local Time) from KOLS Reporting Station
Clear Clear  
Wind Chill: 64°   Ceiling: Unl
Heat Index: 64°   Visibility: 10mi
Dew Point: 50°   Wind: 0mph
Humidity: 60%   Direction: NA
Pressure: 30.13"   Gusts: NA
Location:  31.6134°N, 110.959°W
Report Text: KOLS 260554Z AUTO 00000KT 10SM CLR 18/10 A3013 RMK AO2 SLP138 T01780100 10289 20178 58001
Loading
Personal Weather Stations






























Interactive Weather Map
Tropical Storm Tracking
New forecast layout! Learn more

10-Day Weather Forecast

Advertisements
Track Severe Weather on mobile